Time;durP1;ratioP1;P1;durP2;ratioP2;P2;SDS_P1;SDS_P2;PMS_P1;PMS_P2;Temp;Humidity;BMP_temperature;BMP_pressure;BME280_temperature;BME280_humidity;BME280_pressure;Samples;Min_cycle;Max_cycle;Signal;HPM_P1;HPM_P2
2022/11/28 00:01:35;;;;;;;18.25;8.25;;;5.60;99.90;;;;;;4999924;28;20042;-69
2022/11/28 00:04:00;;;;;;;14.15;7.60;;;5.50;99.90;;;;;;5005631;28;20049;-68
2022/11/28 00:06:27;;;;;;;18.02;8.85;;;5.50;99.90;;;;;;5001653;28;20037;-68
2022/11/28 00:08:53;;;;;;;16.40;8.55;;;5.50;99.90;;;;;;4999742;28;20573;-70
2022/11/28 00:11:18;;;;;;;12.93;7.40;;;5.60;99.90;;;;;;5001350;28;20050;-69
2022/11/28 00:13:45;;;;;;;17.00;8.00;;;5.50;99.90;;;;;;5003400;28;20143;-72
2022/11/28 00:16:20;;;;;;;15.93;7.93;;;5.60;99.90;;;;;;5002165;28;20041;-69
2022/11/28 00:18:46;;;;;;;16.33;8.20;;;5.60;99.90;;;;;;5001949;28;20076;-72
2022/11/28 00:21:14;;;;;;;15.88;8.27;;;5.60;99.90;;;;;;5001258;28;20104;-68
2022/11/28 00:23:41;;;;;;;17.90;8.93;;;5.60;99.90;;;;;;5003491;28;20397;-69
2022/11/28 00:26:13;;;;;;;16.05;8.25;;;5.50;99.90;;;;;;4998856;28;20108;-71
2022/11/28 00:28:39;;;;;;;17.63;7.15;;;5.60;99.90;;;;;;5002955;28;20437;-72
2022/11/28 00:31:05;;;;;;;16.90;9.20;;;5.60;99.90;;;;;;4986621;28;20042;-70
2022/11/28 00:33:32;;;;;;;15.80;8.18;;;5.70;99.90;;;;;;5002576;28;20084;-70
2022/11/28 00:35:59;;;;;;;13.10;8.05;;;5.60;99.90;;;;;;5003398;28;20149;-70
2022/11/28 00:38:24;;;;;;;13.73;7.93;;;5.70;99.90;;;;;;5004616;28;20382;-69
2022/11/28 00:40:58;;;;;;;15.52;8.55;;;5.60;99.90;;;;;;5006924;28;20038;-70
2022/11/28 00:43:24;;;;;;;13.80;7.97;;;5.60;99.90;;;;;;5000099;28;20054;-67
2022/11/28 00:45:49;;;;;;;15.05;7.80;;;5.60;99.90;;;;;;5005645;28;20476;-69
2022/11/28 00:48:15;;;;;;;15.05;7.82;;;5.70;99.90;;;;;;5004070;28;20612;-67
2022/11/28 00:50:40;;;;;;;15.27;7.82;;;5.60;99.90;;;;;;5002737;28;22131;-69
2022/11/28 00:53:06;;;;;;;15.13;8.10;;;5.70;99.90;;;;;;5000749;28;20544;-71
2022/11/28 00:55:32;;;;;;;12.95;7.05;;;5.70;99.90;;;;;;5005699;28;20111;-70
2022/11/28 00:57:57;;;;;;;15.82;8.20;;;5.60;99.90;;;;;;5002830;28;20087;-70
2022/11/28 01:00:23;;;;;;;10.70;6.97;;;5.60;99.90;;;;;;5004861;28;20088;-67
2022/11/28 01:02:49;;;;;;;12.55;7.53;;;5.70;99.90;;;;;;5005610;28;20130;-70
2022/11/28 01:05:15;;;;;;;14.07;7.00;;;5.60;99.90;;;;;;5005692;28;20045;-66
2022/11/28 01:07:41;;;;;;;11.18;7.55;;;5.70;99.90;;;;;;5001539;28;20042;-68
2022/11/28 01:10:09;;;;;;;17.13;8.60;;;5.70;99.90;;;;;;5002654;28;20726;-70
2022/11/28 01:12:35;;;;;;;13.60;8.05;;;5.60;99.90;;;;;;5004125;28;20026;-71
2022/11/28 01:15:00;;;;;;;12.82;7.20;;;5.70;99.90;;;;;;5004855;28;20029;-71
2022/11/28 01:17:26;;;;;;;15.20;7.45;;;5.70;99.90;;;;;;4996761;28;20130;-69
2022/11/28 01:19:52;;;;;;;14.65;8.23;;;5.70;99.90;;;;;;5000435;28;20053;-69
2022/11/28 01:22:17;;;;;;;13.55;8.00;;;5.60;99.90;;;;;;5002096;28;20045;-66
2022/11/28 01:24:43;;;;;;;16.85;8.45;;;5.60;99.90;;;;;;5015984;28;20041;-69
2022/11/28 01:27:08;;;;;;;17.10;8.75;;;5.70;99.90;;;;;;5002224;28;20046;-68
2022/11/28 01:29:34;;;;;;;13.30;8.55;;;5.70;99.90;;;;;;4999261;28;20160;-68
2022/11/28 01:31:59;;;;;;;14.18;8.07;;;5.70;99.90;;;;;;5004216;28;20474;-67
2022/11/28 01:34:25;;;;;;;17.38;8.40;;;5.70;99.90;;;;;;5002969;28;20045;-69
2022/11/28 01:36:50;;;;;;;17.58;8.80;;;5.60;99.90;;;;;;5002306;28;20584;-65
2022/11/28 01:39:16;;;;;;;14.63;8.35;;;5.70;99.90;;;;;;5004358;28;20670;-66
2022/11/28 01:41:41;;;;;;;12.65;7.88;;;5.70;99.90;;;;;;5000337;28;20701;-68
2022/11/28 01:44:27;;;;;;;13.63;7.38;;;5.70;99.90;;;;;;5000746;28;20426;-66
2022/11/28 01:46:53;;;;;;;11.88;8.27;;;5.70;99.90;;;;;;4998292;28;20058;-68
2022/11/28 01:49:27;;;;;;;16.52;8.32;;;5.70;99.90;;;;;;5002840;28;20033;-66
2022/11/28 01:51:59;;;;;;;13.70;7.63;;;5.70;99.90;;;;;;4991831;28;20152;-65
2022/11/28 01:54:27;;;;;;;14.52;8.50;;;5.70;99.90;;;;;;5006933;28;20660;-67
2022/11/28 01:56:59;;;;;;;16.42;8.55;;;5.80;99.90;;;;;;5004655;28;20034;-67
2022/11/28 01:59:27;;;;;;;16.02;9.68;;;5.70;99.90;;;;;;5001961;28;20088;-66
2022/11/28 02:01:53;;;;;;;20.45;9.57;;;5.80;99.90;;;;;;5018639;28;20080;-67
2022/11/28 02:04:19;;;;;;;18.65;8.77;;;5.70;99.90;;;;;;5005674;28;20033;-65
2022/11/28 02:06:44;;;;;;;17.70;9.52;;;5.80;99.90;;;;;;5008446;28;20140;-67
2022/11/28 02:09:15;;;;;;;16.65;8.60;;;5.70;99.90;;;;;;5008098;28;20212;-67
2022/11/28 02:12:14;;;;;;;18.13;9.02;;;5.70;99.90;;;;;;5006640;28;20033;-68
2022/11/28 02:15:04;;;;;;;16.83;9.45;;;5.70;99.90;;;;;;5009153;28;20407;-66
2022/11/28 02:18:00;;;;;;;17.90;8.93;;;5.70;99.90;;;;;;5005376;28;20050;-66
2022/11/28 02:20:47;;;;;;;17.15;8.85;;;5.70;99.90;;;;;;5023249;28;20601;-68
2022/11/28 02:23:37;;;;;;;16.77;8.32;;;5.80;99.90;;;;;;5009051;28;20049;-67
2022/11/28 02:26:30;;;;;;;19.80;9.00;;;5.80;99.90;;;;;;4998199;28;20046;-67
2022/11/28 02:29:20;;;;;;;17.27;8.13;;;5.80;99.90;;;;;;5006051;28;20405;-67
2022/11/28 02:31:54;;;;;;;15.20;8.10;;;5.80;99.90;;;;;;5005902;28;20095;-67
2022/11/28 02:34:38;;;;;;;18.60;9.18;;;5.70;99.90;;;;;;5008297;28;20045;-67
2022/11/28 02:37:28;;;;;;;14.73;8.75;;;5.80;99.90;;;;;;5000068;28;20049;-67
2022/11/28 02:39:56;;;;;;;;;;;5.70;99.90;;;;;;4989737;28;20394;-67
2022/11/28 02:42:57;;;;;;;15.48;8.75;;;5.70;99.90;;;;;;5004758;28;20301;-67
2022/11/28 02:45:28;;;;;;;15.57;8.82;;;5.80;99.90;;;;;;5005495;28;20133;-66
2022/11/28 02:48:02;;;;;;;17.80;9.25;;;5.80;99.90;;;;;;5011043;28;20065;-67
2022/11/28 02:50:34;;;;;;;17.27;9.10;;;5.80;99.90;;;;;;4989624;28;20835;-67
2022/11/28 02:53:07;;;;;;;15.88;8.52;;;5.80;99.90;;;;;;5009731;28;20088;-67
2022/11/28 02:55:37;;;;;;;16.75;9.55;;;5.80;99.90;;;;;;5009768;28;20126;-67
2022/11/28 02:58:03;;;;;;;14.88;8.68;;;5.80;99.90;;;;;;5010553;28;20069;-67
2022/11/28 03:00:31;;;;;;;17.52;9.10;;;5.80;99.90;;;;;;5009732;28;20100;-67
2022/11/28 03:03:32;;;;;;;17.25;9.38;;;5.90;99.90;;;;;;5007928;28;20053;-67
2022/11/28 03:06:50;;;;;;;18.48;9.88;;;5.80;99.90;;;;;;5006709;28;20050;-67
2022/11/28 03:09:24;;;;;;;19.30;9.75;;;5.90;99.90;;;;;;4983445;28;20113;-68
2022/11/28 03:12:10;;;;;;;15.02;9.20;;;5.80;99.90;;;;;;5005044;28;20041;-67
2022/11/28 03:14:52;;;;;;;16.45;10.02;;;5.80;99.90;;;;;;5007568;28;20409;-67
2022/11/28 03:17:39;;;;;;;21.05;10.57;;;5.90;99.90;;;;;;4989307;28;20549;-67
2022/11/28 03:20:30;;;;;;;17.73;10.15;;;5.90;99.90;;;;;;5006812;28;20042;-67
2022/11/28 03:23:08;;;;;;;16.77;10.07;;;5.90;99.90;;;;;;5003948;28;20054;-68
2022/11/28 03:26:00;;;;;;;17.80;10.55;;;5.90;99.90;;;;;;5007394;28;20038;-67
2022/11/28 03:28:41;;;;;;;19.88;10.43;;;6.00;99.90;;;;;;5008087;28;20037;-69
2022/11/28 03:31:12;;;;;;;18.20;10.43;;;6.00;99.90;;;;;;5007108;28;20049;-68
2022/11/28 03:33:42;;;;;;;19.92;10.40;;;6.00;99.90;;;;;;5009747;28;20034;-67
2022/11/28 03:36:16;;;;;;;21.88;10.93;;;6.00;99.90;;;;;;5005349;28;20041;-65
2022/11/28 03:38:47;;;;;;;21.08;10.43;;;6.00;99.90;;;;;;4993962;28;20096;-66
2022/11/28 03:41:15;;;;;;;;;;;6.00;99.90;;;;;;5009018;28;20046;-66
2022/11/28 03:43:47;;;;;;;20.33;10.45;;;6.00;99.90;;;;;;5005693;28;19925;-66
2022/11/28 03:46:16;;;;;;;20.27;10.98;;;6.00;99.90;;;;;;5004868;28;20449;-67
2022/11/28 03:48:46;;;;;;;20.77;11.33;;;6.10;99.90;;;;;;5006724;28;20126;-68
2022/11/28 03:51:28;;;;;;;19.67;11.48;;;6.10;99.90;;;;;;5006856;28;20041;-67
2022/11/28 03:54:10;;;;;;;20.35;11.63;;;6.10;99.90;;;;;;5009163;28;20038;-66
2022/11/28 03:56:55;;;;;;;20.08;11.48;;;6.10;99.90;;;;;;5004458;28;20042;-67
2022/11/28 03:59:39;;;;;;;23.10;11.88;;;6.20;99.90;;;;;;5005208;28;20088;-67
2022/11/28 04:02:22;;;;;;;22.88;12.27;;;6.20;99.90;;;;;;4979835;28;20129;-67
2022/11/28 04:05:17;;;;;;;21.55;12.23;;;6.20;99.90;;;;;;5000678;28;20041;-67
2022/11/28 04:07:52;;;;;;;25.95;13.48;;;6.30;99.90;;;;;;4996705;28;20169;-66
2022/11/28 04:10:34;;;;;;;24.35;13.40;;;6.30;99.90;;;;;;5005744;28;20037;-68
2022/11/28 04:13:06;;;;;;;24.90;13.68;;;6.40;99.90;;;;;;5008298;28;20060;-67
2022/11/28 04:15:46;;;;;;;27.13;14.18;;;6.40;99.90;;;;;;5007025;28;20080;-66
2022/11/28 04:18:17;;;;;;;21.27;12.55;;;6.40;99.90;;;;;;4997153;28;20133;-67
2022/11/28 04:20:59;;;;;;;25.55;14.27;;;6.40;99.90;;;;;;5001764;28;20092;-67
2022/11/28 04:23:26;;;;;;;30.42;14.80;;;6.40;99.90;;;;;;4997303;28;20429;-67
2022/11/28 04:25:56;;;;;;;27.42;15.63;;;6.50;99.90;;;;;;5005202;28;20042;-67
2022/11/28 04:28:25;;;;;;;;;;;6.50;99.90;;;;;;5001764;28;20038;-68
2022/11/28 04:30:52;;;;;;;28.15;16.30;;;6.50;99.90;;;;;;5003326;28;20008;-68
2022/11/28 04:33:21;;;;;;;31.98;17.30;;;6.60;99.90;;;;;;5003563;28;20061;-67
2022/11/28 04:35:50;;;;;;;32.67;16.92;;;6.60;99.90;;;;;;5007000;28;20045;-67
2022/11/28 04:38:17;;;;;;;32.53;17.40;;;6.60;99.90;;;;;;5001205;28;20485;-67
2022/11/28 04:41:18;;;;;;;35.55;18.42;;;6.60;99.90;;;;;;5004190;28;20053;-67
2022/11/28 04:43:56;;;;;;;35.78;18.80;;;6.60;99.90;;;;;;4980959;28;20054;-66
2022/11/28 04:46:28;;;;;;;34.10;18.73;;;6.70;99.90;;;;;;4990157;28;20054;-68
2022/11/28 04:48:54;;;;;;;40.75;20.63;;;6.70;99.90;;;;;;4997754;28;20053;-69
2022/11/28 04:51:43;;;;;;;40.90;20.30;;;6.70;99.90;;;;;;5002289;28;20038;-69
2022/11/28 04:54:28;;;;;;;41.45;20.20;;;6.70;99.90;;;;;;5019112;28;20462;-67
2022/11/28 04:56:59;;;;;;;43.35;21.17;;;6.70;99.90;;;;;;5008076;28;20436;-66
2022/11/28 04:59:27;;;;;;;44.17;22.65;;;6.70;99.90;;;;;;5003452;28;20045;-67
2022/11/28 05:01:54;;;;;;;44.83;22.08;;;6.70;99.90;;;;;;5003728;28;20462;-68
2022/11/28 05:04:20;;;;;;;50.47;24.92;;;6.80;99.90;;;;;;5002006;28;20092;-65
2022/11/28 05:06:45;;;;;;;52.90;24.02;;;6.80;99.90;;;;;;5004561;28;20049;-66
2022/11/28 05:09:12;;;;;;;52.13;24.95;;;6.80;99.90;;;;;;5008369;28;20049;-67
2022/11/28 05:11:38;;;;;;;49.03;25.13;;;6.80;99.90;;;;;;5007390;28;20040;-65
2022/11/28 05:14:04;;;;;;;48.95;25.48;;;6.90;99.90;;;;;;5005933;28;20070;-66
2022/11/28 05:16:29;;;;;;;54.10;26.42;;;6.80;99.90;;;;;;5005590;28;20041;-68
2022/11/28 05:18:55;;;;;;;53.80;26.33;;;6.90;99.90;;;;;;5006937;28;20097;-70
2022/11/28 05:21:21;;;;;;;52.85;25.40;;;6.90;99.90;;;;;;4988108;28;20053;-69
2022/11/28 05:23:46;;;;;;;51.15;25.80;;;6.90;99.90;;;;;;5013881;28;20045;-69
2022/11/28 05:26:18;;;;;;;48.75;26.65;;;6.90;99.90;;;;;;5003406;28;20046;-67
2022/11/28 05:28:49;;;;;;;56.22;25.90;;;6.90;99.90;;;;;;5002800;28;20057;-65
2022/11/28 05:31:16;;;;;;;55.08;26.42;;;7.00;99.90;;;;;;4997746;28;20049;-67
2022/11/28 05:33:41;;;;;;;54.30;25.63;;;7.00;99.90;;;;;;5002713;28;20046;-70
2022/11/28 05:36:09;;;;;;;50.03;25.85;;;7.00;99.90;;;;;;5017072;28;20519;-68
2022/11/28 05:38:35;;;;;;;48.92;24.95;;;7.00;99.90;;;;;;4999047;28;20470;-69
2022/11/28 05:41:02;;;;;;;52.60;25.60;;;7.00;99.90;;;;;;5003714;28;20057;-66
2022/11/28 05:43:28;;;;;;;50.65;25.60;;;7.00;99.90;;;;;;5008570;28;20532;-69
2022/11/28 05:45:54;;;;;;;51.00;24.75;;;7.10;99.90;;;;;;5002368;28;20049;-68
2022/11/28 05:48:19;;;;;;;50.90;25.60;;;7.00;99.90;;;;;;5005528;28;20121;-67
2022/11/28 05:50:45;;;;;;;53.33;26.63;;;7.10;99.90;;;;;;5010078;28;20138;-67
2022/11/28 05:53:11;;;;;;;52.22;24.95;;;7.00;99.90;;;;;;5007353;28;20058;-67
2022/11/28 05:55:38;;;;;;;53.42;26.10;;;7.10;99.90;;;;;;5006401;28;20050;-66
2022/11/28 05:58:04;;;;;;;51.28;25.77;;;7.10;99.90;;;;;;5008806;28;20061;-67
2022/11/28 06:00:30;;;;;;;53.78;25.95;;;7.10;99.90;;;;;;5006575;28;20043;-69
2022/11/28 06:02:56;;;;;;;49.47;26.35;;;7.10;99.90;;;;;;5009280;28;20441;-66
2022/11/28 06:05:21;;;;;;;51.28;26.90;;;7.10;99.90;;;;;;5010576;28;20551;-68
2022/11/28 06:07:47;;;;;;;50.63;26.35;;;7.10;99.90;;;;;;5001503;28;20030;-69
2022/11/28 06:10:13;;;;;;;51.47;26.90;;;7.10;99.90;;;;;;5005922;28;20481;-67
2022/11/28 06:12:38;;;;;;;56.63;26.42;;;7.10;99.90;;;;;;5010263;28;20098;-68
2022/11/28 06:15:04;;;;;;;55.78;27.80;;;7.10;99.90;;;;;;5009354;28;20515;-68
2022/11/28 06:17:30;;;;;;;52.67;27.80;;;7.10;99.90;;;;;;5003712;28;20069;-67
2022/11/28 06:19:56;;;;;;;52.90;27.52;;;7.10;99.90;;;;;;5008653;28;20072;-67
2022/11/28 06:22:21;;;;;;;53.83;27.13;;;7.20;99.90;;;;;;4992655;28;20107;-68
2022/11/28 06:24:47;;;;;;;53.20;26.23;;;7.10;99.90;;;;;;5014147;28;20466;-69
2022/11/28 06:27:13;;;;;;;47.28;25.95;;;7.20;99.90;;;;;;4991769;28;20095;-69
2022/11/28 06:29:38;;;;;;;53.28;26.65;;;7.20;99.90;;;;;;5014253;28;20038;-66
2022/11/28 06:32:04;;;;;;;50.65;27.08;;;7.10;99.90;;;;;;5010446;28;20045;-68
2022/11/28 06:34:31;;;;;;;55.13;27.52;;;7.20;99.90;;;;;;5010805;28;20592;-67
2022/11/28 06:36:56;;;;;;;53.85;26.55;;;7.20;99.90;;;;;;5008534;28;20547;-68
2022/11/28 06:39:22;;;;;;;51.42;25.52;;;7.10;99.90;;;;;;5006882;28;20041;-64
2022/11/28 06:41:48;;;;;;;49.47;25.25;;;7.10;99.90;;;;;;5010111;28;20057;-67
2022/11/28 06:44:14;;;;;;;46.00;24.02;;;7.20;99.90;;;;;;5008267;28;20061;-68
2022/11/28 06:46:41;;;;;;;42.30;23.30;;;7.20;99.90;;;;;;5015683;28;20038;-67
2022/11/28 06:49:08;;;;;;;49.83;24.50;;;7.20;99.90;;;;;;5006164;28;20038;-67
2022/11/28 06:51:34;;;;;;;48.47;25.08;;;7.10;99.90;;;;;;5009156;28;20052;-67
2022/11/28 06:54:00;;;;;;;41.67;22.73;;;7.10;99.90;;;;;;4995111;28;20037;-67
2022/11/28 06:56:26;;;;;;;42.08;22.15;;;7.20;99.90;;;;;;5011094;28;20052;-68
2022/11/28 06:58:56;;;;;;;39.97;21.83;;;7.10;99.90;;;;;;5006554;28;20050;-67
2022/11/28 07:01:25;;;;;;;39.92;21.75;;;7.20;99.90;;;;;;4993988;28;20077;-67
2022/11/28 07:03:50;;;;;;;37.38;21.33;;;7.20;99.90;;;;;;5005281;28;20485;-66
2022/11/28 07:06:18;;;;;;;40.63;21.33;;;7.20;99.90;;;;;;4996681;28;20056;-68
2022/11/28 07:08:45;;;;;;;37.53;19.30;;;7.20;99.90;;;;;;5005812;28;20034;-67
2022/11/28 07:11:15;;;;;;;32.72;20.10;;;7.20;99.90;;;;;;5018885;28;20040;-66
2022/11/28 07:13:41;;;;;;;;;;;7.20;99.90;;;;;;5010585;28;20371;-66
2022/11/28 07:16:11;;;;;;;37.25;20.05;;;7.10;99.90;;;;;;5010247;28;19928;-65
2022/11/28 07:18:36;;;;;;;36.30;19.50;;;7.10;99.90;;;;;;5011998;28;20754;-66
2022/11/28 07:21:02;;;;;;;34.90;18.80;;;7.10;99.90;;;;;;4978655;28;20054;-67
2022/11/28 07:23:28;;;;;;;33.80;19.38;;;7.10;99.90;;;;;;4994063;28;20073;-66
2022/11/28 07:25:58;;;;;;;35.17;19.73;;;7.20;99.90;;;;;;5011168;28;20044;-68
2022/11/28 07:28:24;;;;;;;31.40;17.98;;;7.20;99.90;;;;;;5009541;28;20038;-67
2022/11/28 07:31:09;;;;;;;30.40;18.45;;;7.20;99.90;;;;;;5007519;28;20058;-68
2022/11/28 07:33:35;;;;;;;32.80;18.15;;;7.20;99.90;;;;;;5004726;28;20056;-67
2022/11/28 07:36:03;;;;;;;31.05;17.38;;;7.20;99.90;;;;;;5008696;28;20050;-67
2022/11/28 07:38:28;;;;;;;36.17;18.30;;;7.20;99.90;;;;;;5011510;28;20070;-67
2022/11/28 07:40:54;;;;;;;34.22;17.88;;;7.20;99.90;;;;;;5009957;28;20080;-67
2022/11/28 07:43:20;;;;;;;33.45;17.60;;;7.20;99.90;;;;;;5006749;28;20053;-68
2022/11/28 07:45:45;;;;;;;32.47;17.13;;;7.20;99.90;;;;;;5002362;28;20121;-68
2022/11/28 07:48:11;;;;;;;33.35;17.60;;;7.20;99.90;;;;;;5009616;28;20077;-68
2022/11/28 07:50:38;;;;;;;32.45;17.33;;;7.20;99.90;;;;;;5007559;28;20045;-67
2022/11/28 07:53:03;;;;;;;30.90;17.27;;;7.20;99.90;;;;;;4987942;28;20052;-67
2022/11/28 07:55:29;;;;;;;28.17;16.02;;;7.20;99.90;;;;;;5006805;28;20046;-67
2022/11/28 07:57:54;;;;;;;27.40;15.40;;;7.20;99.90;;;;;;4997985;28;20164;-66
2022/11/28 08:00:21;;;;;;;29.58;15.88;;;7.20;99.90;;;;;;5006774;28;20125;-68
2022/11/28 08:02:46;;;;;;;26.92;15.77;;;7.30;99.90;;;;;;5007148;28;20436;-67
2022/11/28 08:05:12;;;;;;;29.95;15.80;;;7.30;99.90;;;;;;4989933;28;20121;-66
2022/11/28 08:07:38;;;;;;;27.25;15.07;;;7.30;99.90;;;;;;5009389;28;20080;-67
2022/11/28 08:10:07;;;;;;;25.38;14.90;;;7.30;99.90;;;;;;4999139;28;20524;-67
2022/11/28 08:12:35;;;;;;;29.00;15.38;;;7.30;99.90;;;;;;5002309;28;20363;-67
2022/11/28 08:15:01;;;;;;;32.28;15.70;;;7.20;99.90;;;;;;5009279;28;20088;-70
2022/11/28 08:17:27;;;;;;;30.67;16.52;;;7.30;99.90;;;;;;5009483;28;20096;-68
2022/11/28 08:19:52;;;;;;;28.63;15.18;;;7.20;99.90;;;;;;5007633;28;20461;-69
2022/11/28 08:22:18;;;;;;;26.35;14.80;;;7.20;99.90;;;;;;4987572;28;20057;-66
2022/11/28 08:24:43;;;;;;;30.35;15.85;;;7.30;99.90;;;;;;5009725;28;20377;-69
2022/11/28 08:27:09;;;;;;;26.65;15.20;;;7.30;99.90;;;;;;5008689;28;20096;-66
2022/11/28 08:29:34;;;;;;;31.60;14.75;;;7.30;99.90;;;;;;5010774;28;20554;-67
2022/11/28 08:32:00;;;;;;;29.45;15.80;;;7.30;99.90;;;;;;5008389;28;20522;-68
2022/11/28 08:34:25;;;;;;;29.52;15.32;;;7.30;99.90;;;;;;5008163;28;20045;-67
2022/11/28 08:36:51;;;;;;;26.63;14.90;;;7.30;99.90;;;;;;5008767;28;20773;-66
2022/11/28 08:39:17;;;;;;;28.17;15.18;;;7.30;99.90;;;;;;5009490;28;20470;-66
2022/11/28 08:41:43;;;;;;;30.60;15.90;;;7.30;99.90;;;;;;5007396;28;20057;-68
2022/11/28 08:44:09;;;;;;;26.00;14.60;;;7.40;99.90;;;;;;5022844;28;20058;-68
2022/11/28 08:46:35;;;;;;;28.52;14.90;;;7.40;99.90;;;;;;4992353;28;20420;-69
2022/11/28 08:49:01;;;;;;;26.42;14.57;;;7.40;99.90;;;;;;5004013;28;20459;-69
2022/11/28 08:51:29;;;;;;;29.67;16.33;;;7.40;99.90;;;;;;5004291;28;20056;-70
2022/11/28 08:53:55;;;;;;;28.85;15.75;;;7.30;99.90;;;;;;5005289;28;20122;-70
2022/11/28 08:56:21;;;;;;;27.67;15.27;;;7.40;99.90;;;;;;4997501;28;20043;-72
2022/11/28 08:58:46;;;;;;;31.33;15.10;;;7.30;99.90;;;;;;5003294;28;20033;-68
2022/11/28 09:01:24;;;;;;;27.35;15.13;;;7.40;99.90;;;;;;4982016;28;20050;-66
2022/11/28 09:03:51;;;;;;;28.70;15.32;;;7.30;99.90;;;;;;4986859;28;20061;-70
2022/11/28 09:06:17;;;;;;;32.80;16.58;;;7.40;99.90;;;;;;4970421;28;20046;-72
2022/11/28 09:08:43;;;;;;;28.48;15.13;;;7.40;99.90;;;;;;4981007;28;20124;-71
2022/11/28 09:11:11;;;;;;;34.85;16.58;;;7.50;99.90;;;;;;5007717;28;20101;-70
2022/11/28 09:13:38;;;;;;;29.10;15.52;;;7.50;99.90;;;;;;5004094;28;20424;-68
2022/11/28 09:16:04;;;;;;;26.35;14.10;;;7.50;99.90;;;;;;5010568;28;20065;-67
2022/11/28 09:18:29;;;;;;;26.08;14.68;;;7.50;99.90;;;;;;5011408;28;20038;-68
2022/11/28 09:21:04;;;;;;;30.63;14.65;;;7.40;99.90;;;;;;5012881;28;20057;-68
2022/11/28 09:23:30;;;;;;;26.77;14.73;;;7.50;99.90;;;;;;5008849;28;20038;-69
2022/11/28 09:25:56;;;;;;;25.70;13.30;;;7.50;99.90;;;;;;5024102;28;20505;-67
2022/11/28 09:28:22;;;;;;;23.50;13.50;;;7.60;99.90;;;;;;5009645;28;20046;-69
2022/11/28 09:30:47;;;;;;;25.05;13.68;;;7.60;99.90;;;;;;5010607;28;20140;-71
2022/11/28 09:33:13;;;;;;;26.77;13.65;;;7.60;99.90;;;;;;5005388;28;20482;-69
2022/11/28 09:35:39;;;;;;;34.70;15.48;;;7.40;99.90;;;;;;5007182;28;20378;-72
2022/11/28 09:38:05;;;;;;;33.63;15.07;;;7.40;99.90;;;;;;5002627;28;20048;-72
2022/11/28 09:40:36;;;;;;;33.65;15.25;;;7.60;99.90;;;;;;5007210;28;20045;-70
2022/11/28 09:43:10;;;;;;;30.63;14.43;;;7.50;99.90;;;;;;5010050;28;20053;-70
2022/11/28 09:45:36;;;;;;;28.25;15.25;;;7.50;99.90;;;;;;5010766;28;20042;-69
2022/11/28 09:48:24;;;;;;;28.15;14.70;;;7.50;99.90;;;;;;5010064;28;20068;-68
2022/11/28 09:50:54;;;;;;;24.30;14.15;;;7.70;99.90;;;;;;4997470;28;20041;-68
2022/11/28 09:53:27;;;;;;;26.10;13.68;;;7.60;99.90;;;;;;5008644;28;20041;-71
2022/11/28 09:56:13;;;;;;;24.98;13.43;;;7.60;99.90;;;;;;5007222;28;20687;-70
2022/11/28 09:58:44;;;;;;;22.77;12.68;;;7.60;99.90;;;;;;4990130;28;20053;-69
2022/11/28 10:01:09;;;;;;;25.73;13.32;;;7.60;99.90;;;;;;5001507;28;20060;-68
2022/11/28 10:04:01;;;;;;;29.02;13.65;;;7.40;99.90;;;;;;5000066;28;20046;-70
2022/11/28 10:06:43;;;;;;;24.75;13.90;;;7.70;99.90;;;;;;5000916;28;20061;-68
2022/11/28 10:09:20;;;;;;;24.13;12.80;;;7.60;99.90;;;;;;4993767;28;20042;-68
2022/11/28 10:12:04;;;;;;;29.50;13.82;;;7.60;99.90;;;;;;5006875;28;20093;-70
2022/11/28 10:14:45;;;;;;;26.35;13.40;;;7.50;99.90;;;;;;5003956;28;20042;-68
2022/11/28 10:17:16;;;;;;;28.80;13.77;;;7.50;99.90;;;;;;4993498;28;20049;-70
2022/11/28 10:19:53;;;;;;;26.15;13.27;;;7.70;99.90;;;;;;4995378;28;20054;-70
2022/11/28 10:22:29;;;;;;;27.58;13.70;;;7.50;99.90;;;;;;5006692;28;20057;-70
2022/11/28 10:24:59;;;;;;;27.20;13.73;;;7.60;99.90;;;;;;5000705;28;20462;-70
2022/11/28 10:27:34;;;;;;;25.92;13.60;;;7.50;99.90;;;;;;5004971;28;20038;-68
2022/11/28 10:30:19;;;;;;;24.65;13.30;;;7.80;99.90;;;;;;5003751;28;20053;-68
2022/11/28 10:32:54;;;;;;;28.00;14.30;;;7.50;99.90;;;;;;5001927;28;20034;-71
2022/11/28 10:35:41;;;;;;;29.88;14.60;;;7.80;99.90;;;;;;5006359;28;20042;-68
2022/11/28 10:38:14;;;;;;;26.38;13.52;;;7.70;99.90;;;;;;4991976;28;20035;-67
2022/11/28 10:40:52;;;;;;;25.00;14.07;;;7.60;99.90;;;;;;5000186;28;20042;-70
2022/11/28 10:43:45;;;;;;;25.27;13.13;;;7.60;99.90;;;;;;5004147;28;20077;-70
2022/11/28 10:46:48;;;;;;;25.27;13.77;;;7.50;99.90;;;;;;4999925;28;20060;-68
2022/11/28 10:49:28;;;;;;;25.15;13.57;;;7.60;99.90;;;;;;5011713;28;20124;-69
2022/11/28 10:52:14;;;;;;;23.02;13.98;;;7.50;99.90;;;;;;5009402;28;20042;-71
2022/11/28 10:55:13;;;;;;;24.42;13.60;;;7.60;99.90;;;;;;5007801;28;20394;-69
2022/11/28 10:57:55;;;;;;;26.52;13.35;;;7.70;99.90;;;;;;5001604;28;20050;-69
2022/11/28 11:00:20;;;;;;;28.95;13.82;;;7.50;99.90;;;;;;5007272;28;20045;-70
2022/11/28 11:02:53;;;;;;;28.40;14.00;;;7.70;99.90;;;;;;4994543;28;20030;-70
2022/11/28 11:05:35;;;;;;;28.13;14.38;;;7.70;99.90;;;;;;5010071;28;20069;-69
2022/11/28 11:08:22;;;;;;;24.92;13.75;;;7.60;99.90;;;;;;5009472;28;20485;-69
2022/11/28 11:10:50;;;;;;;27.63;14.23;;;7.60;99.90;;;;;;5009220;28;20397;-69
2022/11/28 11:13:19;;;;;;;28.98;14.65;;;7.60;99.90;;;;;;5009373;28;20164;-70
2022/11/28 11:15:47;;;;;;;27.17;14.50;;;7.60;99.90;;;;;;5010931;28;20091;-69
2022/11/28 11:18:42;;;;;;;29.33;15.10;;;7.70;99.90;;;;;;5007341;28;20057;-69
2022/11/28 11:21:27;;;;;;;31.05;14.63;;;7.70;99.90;;;;;;5002798;28;20057;-69
2022/11/28 11:24:16;;;;;;;34.85;15.27;;;7.60;99.90;;;;;;5009301;28;20712;-70
2022/11/28 11:26:47;;;;;;;27.52;14.65;;;7.60;99.90;;;;;;4991809;28;20069;-69
2022/11/28 11:29:29;;;;;;;31.98;15.38;;;7.80;99.90;;;;;;4991639;28;20034;-68
2022/11/28 11:31:57;;;;;;;28.75;14.52;;;7.80;99.90;;;;;;4990867;28;20045;-70
2022/11/28 11:34:23;;;;;;;33.38;15.13;;;7.60;99.90;;;;;;5008206;28;20050;-70
2022/11/28 11:36:49;;;;;;;25.20;13.77;;;7.70;99.90;;;;;;5023993;28;20068;-70
2022/11/28 11:39:21;;;;;;;29.77;15.27;;;7.60;99.90;;;;;;5030389;28;20042;-69
2022/11/28 11:41:50;;;;;;;29.45;15.05;;;7.70;99.90;;;;;;5006935;28;20061;-69
2022/11/28 11:44:28;;;;;;;28.13;14.70;;;7.90;99.90;;;;;;5011278;28;20480;-71
2022/11/28 11:47:01;;;;;;;26.38;14.23;;;7.90;99.90;;;;;;4989927;28;20052;-68
2022/11/28 11:49:38;;;;;;;27.27;14.63;;;7.90;99.90;;;;;;5005426;28;20942;-71
2022/11/28 11:52:21;;;;;;;29.58;15.07;;;7.70;99.90;;;;;;5008832;28;20041;-71
2022/11/28 11:54:56;;;;;;;27.52;14.15;;;7.70;99.90;;;;;;5009658;28;20046;-71
2022/11/28 11:57:52;;;;;;;25.55;14.63;;;7.90;99.90;;;;;;4991646;28;20084;-69
2022/11/28 12:00:21;;;;;;;28.67;14.48;;;7.70;99.90;;;;;;5008674;28;20041;-70
2022/11/28 12:02:54;;;;;;;27.73;14.35;;;7.70;99.90;;;;;;5000864;28;20413;-71
2022/11/28 12:05:30;;;;;;;30.90;15.27;;;7.70;99.90;;;;;;5008842;28;20042;-69
2022/11/28 12:08:06;;;;;;;31.95;15.73;;;7.90;99.90;;;;;;5001356;28;20050;-71
2022/11/28 12:10:48;;;;;;;23.67;13.88;;;7.80;99.90;;;;;;5007198;28;20184;-68
2022/11/28 12:13:22;;;;;;;28.65;14.18;;;7.90;99.90;;;;;;5002013;28;20049;-70
2022/11/28 12:15:50;;;;;;;25.33;13.20;;;7.90;99.90;;;;;;5022485;28;20513;-68
2022/11/28 12:18:22;;;;;;;25.02;13.80;;;7.90;99.90;;;;;;5005691;28;20096;-70
2022/11/28 12:21:00;;;;;;;24.58;13.88;;;7.90;99.90;;;;;;5011060;28;20104;-69
2022/11/28 12:23:40;;;;;;;27.65;14.27;;;8.00;99.90;;;;;;5009040;28;20041;-71
2022/11/28 12:26:09;;;;;;;24.15;13.73;;;8.00;99.90;;;;;;5010360;28;20054;-70
2022/11/28 12:28:43;;;;;;;28.48;14.82;;;7.90;99.90;;;;;;5008784;28;20408;-70
2022/11/28 12:31:38;;;;;;;28.15;14.70;;;7.70;99.90;;;;;;5009128;28;20037;-71
2022/11/28 12:34:22;;;;;;;26.38;13.80;;;8.00;99.90;;;;;;5002853;28;20085;-70
2022/11/28 12:37:09;;;;;;;25.50;14.15;;;7.90;99.90;;;;;;5008944;28;20046;-69
2022/11/28 12:39:47;;;;;;;29.10;14.50;;;7.80;99.90;;;;;;5008155;28;20095;-68
2022/11/28 12:42:38;;;;;;;29.02;14.38;;;7.90;99.90;;;;;;5009115;28;20053;-71
2022/11/28 12:45:12;;;;;;;23.70;12.38;;;7.80;99.90;;;;;;5009226;28;20061;-71
2022/11/28 12:47:50;;;;;;;31.20;14.55;;;7.90;99.90;;;;;;4989484;28;20039;-69
2022/11/28 12:50:44;;;;;;;26.67;13.80;;;8.00;99.90;;;;;;5003578;28;20065;-71
2022/11/28 12:53:26;;;;;;;26.63;13.20;;;7.80;99.90;;;;;;5006951;28;20061;-70
2022/11/28 12:56:25;;;;;;;29.58;13.82;;;8.10;99.90;;;;;;4992226;28;20041;-71
2022/11/28 12:58:59;;;;;;;23.63;12.40;;;7.90;99.90;;;;;;4979725;28;20049;-69
2022/11/28 13:01:28;;;;;;;24.88;13.02;;;8.00;99.90;;;;;;4998678;28;20053;-69
2022/11/28 13:04:19;;;;;;;26.63;13.32;;;8.00;99.90;;;;;;5008226;28;20042;-71
2022/11/28 13:07:13;;;;;;;23.30;13.00;;;8.10;99.90;;;;;;5009477;28;20049;-69